Time,TemperatureF,DewpointF,PressureIn,WindDirection,WindDirectionDegrees,WindSpeedMPH,WindSpeedGustMPH,Humidity,HourlyPrecipIn,Conditions,Clouds,dailyrainin,SoftwareType,DateUTC
2013-11-06 00:01:00,52.6,33.5,30.31,ENE,69,0.0,0.0,48,0.00,,,0.00,Wunderground v.1.15,2013-11-06 05:01:00,
2013-11-06 00:03:00,52.6,33.5,30.31,ENE,69,0.0,1.0,48,0.00,,,0.00,Wunderground v.1.15,2013-11-06 05:03:00,
2013-11-06 00:04:00,52.6,33.5,30.31,ENE,69,0.0,1.0,48,0.00,,,0.00,Wunderground v.1.15,2013-11-06 05:04:00,
2013-11-06 00:08:00,52.6,32.9,30.31,ENE,68,0.0,1.0,47,0.00,,,0.00,Wunderground v.1.15,2013-11-06 05:08:00,
2013-11-06 00:09:00,52.6,32.9,30.31,ENE,68,0.0,0.0,47,0.00,,,0.00,Wunderground v.1.15,2013-11-06 05:09:00,
2013-11-06 00:14:00,52.5,33.9,30.31,ENE,68,0.0,0.0,49,0.00,,,0.00,Wunderground v.1.15,2013-11-06 05:14:00,
2013-11-06 00:20:00,52.2,32.6,30.31,ENE,68,0.0,0.0,47,0.00,,,0.00,Wunderground v.1.15,2013-11-06 05:20:00,
2013-11-06 00:25:00,52.2,32.6,30.31,ENE,68,0.0,0.0,47,0.00,,,0.00,Wunderground v.1.15,2013-11-06 05:25:00,
2013-11-06 00:31:00,51.9,33.8,30.31,ENE,68,0.0,1.0,50,0.00,,,0.00,Wunderground v.1.15,2013-11-06 05:31:00,
2013-11-06 00:36:00,51.6,33.6,30.31,ENE,68,0.0,1.0,50,0.00,,,0.00,Wunderground v.1.15,2013-11-06 05:36:00,
2013-11-06 00:42:00,51.6,33.0,30.31,ENE,68,0.0,0.0,49,0.00,,,0.00,Wunderground v.1.15,2013-11-06 05:42:00,
2013-11-06 00:47:00,51.4,33.4,30.31,ENE,68,0.0,0.0,50,0.00,,,0.00,Wunderground v.1.15,2013-11-06 05:47:00,
2013-11-06 00:53:00,51.3,32.8,30.30,ENE,68,0.0,0.0,49,0.00,,,0.00,Wunderground v.1.15,2013-11-06 05:53:00,
2013-11-06 00:58:00,51.3,32.8,30.30,ENE,68,0.0,0.0,49,0.00,,,0.00,Wunderground v.1.15,2013-11-06 05:58:00,
2013-11-06 01:03:00,51.1,34.1,30.30,ENE,68,0.0,0.0,52,0.00,,,0.00,Wunderground v.1.15,2013-11-06 06:03:00,
2013-11-06 01:09:00,50.8,33.8,30.30,ENE,68,0.0,1.0,52,0.00,,,0.00,Wunderground v.1.15,2013-11-06 06:09:00,
2013-11-06 01:14:00,50.4,34.8,30.30,ENE,68,0.0,0.0,55,0.00,,,0.00,Wunderground v.1.15,2013-11-06 06:14:00,
2013-11-06 01:20:00,50.2,33.7,30.30,ENE,68,0.0,0.0,53,0.00,,,0.00,Wunderground v.1.15,2013-11-06 06:20:00,
2013-11-06 01:25:00,50.2,32.8,30.30,ENE,68,0.0,0.0,51,0.00,,,0.00,Wunderground v.1.15,2013-11-06 06:25:00,
2013-11-06 01:31:00,50.4,33.4,30.30,ENE,68,0.0,0.0,52,0.00,,,0.00,Wunderground v.1.15,2013-11-06 06:31:00,
2013-11-06 01:36:00,50.5,33.5,30.29,ENE,68,0.0,0.0,52,0.00,,,0.00,Wunderground v.1.15,2013-11-06 06:36:00,
2013-11-06 01:42:00,50.8,32.8,30.29,ENE,72,0.0,2.0,50,0.00,,,0.00,Wunderground v.1.15,2013-11-06 06:42:00,
2013-11-06 01:47:00,50.8,33.8,30.29,ENE,72,0.0,2.0,52,0.00,,,0.00,Wunderground v.1.15,2013-11-06 06:47:00,
2013-11-06 01:53:00,51.0,33.5,30.29,ENE,71,0.0,0.0,51,0.00,,,0.00,Wunderground v.1.15,2013-11-06 06:53:00,
2013-11-06 01:58:00,51.0,33.5,30.29,ENE,71,0.0,2.0,51,0.00,,,0.00,Wunderground v.1.15,2013-11-06 06:58:00,
2013-11-06 02:04:00,51.1,34.1,30.29,ENE,71,0.0,0.0,52,0.00,,,0.00,Wunderground v.1.15,2013-11-06 07:04:00,
2013-11-06 02:09:00,51.1,33.6,30.29,ENE,71,0.0,0.0,51,0.00,,,0.00,Wunderground v.1.15,2013-11-06 07:09:00,
2013-11-06 02:15:00,51.1,34.1,30.29,ENE,71,0.0,0.0,52,0.00,,,0.00,Wunderground v.1.15,2013-11-06 07:15:00,
2013-11-06 02:20:00,51.3,34.3,30.29,ENE,71,0.0,0.0,52,0.00,,,0.00,Wunderground v.1.15,2013-11-06 07:20:00,
2013-11-06 02:25:00,51.6,34.5,30.28,ENE,71,0.0,0.0,52,0.00,,,0.00,Wunderground v.1.15,2013-11-06 07:25:00,
2013-11-06 02:31:00,51.6,35.0,30.28,ENE,71,0.0,0.0,53,0.00,,,0.00,Wunderground v.1.15,2013-11-06 07:31:00,
2013-11-06 02:36:00,51.4,34.3,30.27,ENE,71,0.0,0.0,52,0.00,,,0.00,Wunderground v.1.15,2013-11-06 07:36:00,
2013-11-06 02:42:00,51.0,36.3,30.27,ENE,71,0.0,0.0,57,0.00,,,0.00,Wunderground v.1.15,2013-11-06 07:42:00,
2013-11-06 02:47:00,50.4,35.7,30.27,ENE,71,0.0,0.0,57,0.00,,,0.00,Wunderground v.1.15,2013-11-06 07:47:00,
2013-11-06 02:53:00,50.2,36.8,30.27,ENE,71,0.0,0.0,60,0.00,,,0.00,Wunderground v.1.15,2013-11-06 07:53:00,
2013-11-06 02:58:00,50.2,36.4,30.27,ENE,71,0.0,0.0,59,0.00,,,0.00,Wunderground v.1.15,2013-11-06 07:58:00,
2013-11-06 03:04:00,50.4,35.7,30.27,ENE,71,0.0,0.0,57,0.00,,,0.00,Wunderground v.1.15,2013-11-06 08:04:00,
2013-11-06 03:09:00,50.8,35.7,30.27,ENE,71,0.0,0.0,56,0.00,,,0.00,Wunderground v.1.15,2013-11-06 08:09:00,
2013-11-06 03:15:00,51.6,37.3,30.27,ENE,71,0.0,0.0,58,0.00,,,0.00,Wunderground v.1.15,2013-11-06 08:15:00,
2013-11-06 03:20:00,52.0,37.7,30.27,ENE,71,0.0,0.0,58,0.00,,,0.00,Wunderground v.1.15,2013-11-06 08:20:00,
2013-11-06 03:26:00,52.2,38.3,30.27,ENE,71,0.0,0.0,59,0.00,,,0.00,Wunderground v.1.15,2013-11-06 08:26:00,
2013-11-06 03:31:00,52.5,38.6,30.27,ENE,71,0.0,0.0,59,0.00,,,0.00,Wunderground v.1.15,2013-11-06 08:31:00,
2013-11-06 03:37:00,52.5,39.8,30.26,ENE,71,0.0,0.0,62,0.00,,,0.00,Wunderground v.1.15,2013-11-06 08:37:00,
2013-11-06 03:42:00,52.5,39.8,30.26,ENE,71,0.0,0.0,62,0.00,,,0.00,Wunderground v.1.15,2013-11-06 08:42:00,
2013-11-06 03:48:00,52.3,40.9,30.26,ENE,71,0.0,0.0,65,0.00,,,0.00,Wunderground v.1.15,2013-11-06 08:48:00,
2013-11-06 03:53:00,52.3,40.9,30.25,ENE,71,0.0,0.0,65,0.00,,,0.00,Wunderground v.1.15,2013-11-06 08:53:00,
2013-11-06 03:59:00,52.3,41.7,30.25,ENE,71,0.0,0.0,67,0.00,,,0.00,Wunderground v.1.15,2013-11-06 08:59:00,
2013-11-06 04:04:00,52.2,42.0,30.25,ENE,71,0.0,0.0,68,0.00,,,0.00,Wunderground v.1.15,2013-11-06 09:04:00,
2013-11-06 04:10:00,52.2,42.3,30.25,ENE,71,0.0,0.0,69,0.00,,,0.00,Wunderground v.1.15,2013-11-06 09:10:00,
2013-11-06 04:15:00,52.2,43.1,30.25,ENE,71,0.0,0.0,71,0.00,,,0.00,Wunderground v.1.15,2013-11-06 09:15:00,
2013-11-06 04:20:00,52.2,43.1,30.25,ENE,71,0.0,0.0,71,0.00,,,0.00,Wunderground v.1.15,2013-11-06 09:20:00,
2013-11-06 04:26:00,52.2,43.4,30.25,ENE,71,0.0,0.0,72,0.00,,,0.00,Wunderground v.1.15,2013-11-06 09:26:00,
2013-11-06 04:32:00,52.2,43.4,30.25,ENE,71,0.0,0.0,72,0.00,,,0.00,Wunderground v.1.15,2013-11-06 09:32:00,
2013-11-06 04:38:00,52.3,44.3,30.25,ENE,71,0.0,0.0,74,0.00,,,0.00,Wunderground v.1.15,2013-11-06 09:38:00,
2013-11-06 04:43:00,52.5,45.2,30.25,ENE,71,0.0,0.0,76,0.00,,,0.00,Wunderground v.1.15,2013-11-06 09:43:00,
2013-11-06 04:49:00,52.5,45.5,30.25,ENE,71,0.0,0.0,77,0.00,,,0.00,Wunderground v.1.15,2013-11-06 09:49:00,
2013-11-06 04:54:00,52.5,46.2,30.25,ENE,71,0.0,0.0,79,0.00,,,0.00,Wunderground v.1.15,2013-11-06 09:54:00,
2013-11-06 05:00:00,52.3,46.6,30.25,ENE,71,0.0,0.0,81,0.00,,,0.00,Wunderground v.1.15,2013-11-06 10:00:00,
2013-11-06 05:05:00,52.0,47.0,30.25,ENE,71,0.0,0.0,83,0.00,,,0.00,Wunderground v.1.15,2013-11-06 10:05:00,
2013-11-06 05:11:00,51.7,47.6,30.25,ENE,71,0.0,2.0,86,0.00,,,0.00,Wunderground v.1.15,2013-11-06 10:11:00,
2013-11-06 05:16:00,51.7,48.3,30.25,ENE,71,1.0,2.0,88,0.00,,,0.00,Wunderground v.1.15,2013-11-06 10:16:00,
2013-11-06 05:22:00,51.7,48.6,30.25,ENE,71,0.0,1.0,89,0.00,,,0.00,Wunderground v.1.15,2013-11-06 10:22:00,
2013-11-06 05:27:00,51.7,48.9,30.25,ENE,71,0.0,3.0,90,0.00,,,0.00,Wunderground v.1.15,2013-11-06 10:27:00,
2013-11-06 05:33:00,51.6,49.1,30.25,ENE,71,0.0,0.0,91,0.00,,,0.00,Wunderground v.1.15,2013-11-06 10:33:00,
2013-11-06 05:39:00,51.7,49.5,30.24,ENE,71,0.0,0.0,92,0.00,,,0.00,Wunderground v.1.15,2013-11-06 10:39:00,
2013-11-06 05:45:00,51.9,49.6,30.24,ENE,71,0.0,0.0,92,0.00,,,0.00,Wunderground v.1.15,2013-11-06 10:45:00,
2013-11-06 05:50:00,51.9,49.9,30.24,ENE,71,0.0,0.0,93,0.00,,,0.00,Wunderground v.1.15,2013-11-06 10:50:00,
2013-11-06 05:56:00,52.0,50.0,30.25,ENE,71,0.0,0.0,93,0.00,,,0.00,Wunderground v.1.15,2013-11-06 10:56:00,
2013-11-06 06:01:00,52.2,50.2,30.25,ENE,71,0.0,0.0,93,0.00,,,0.00,Wunderground v.1.15,2013-11-06 11:01:00,
2013-11-06 06:07:00,52.2,50.2,30.25,ENE,71,0.0,2.0,93,0.00,,,0.00,Wunderground v.1.15,2013-11-06 11:07:00,
2013-11-06 06:12:00,52.2,50.2,30.25,ENE,71,0.0,0.0,93,0.00,,,0.00,Wunderground v.1.15,2013-11-06 11:12:00,
2013-11-06 06:18:00,52.2,50.2,30.25,ENE,71,0.0,0.0,93,0.00,,,0.00,Wunderground v.1.15,2013-11-06 11:18:00,
2013-11-06 06:23:00,52.2,50.5,30.25,ENE,71,0.0,3.0,94,0.00,,,0.00,Wunderground v.1.15,2013-11-06 11:23:00,
2013-11-06 06:28:00,52.2,50.5,30.25,ENE,71,0.0,3.0,94,0.00,,,0.00,Wunderground v.1.15,2013-11-06 11:28:00,
2013-11-06 06:34:00,52.2,50.5,30.25,ENE,71,0.0,0.0,94,0.00,,,0.00,Wunderground v.1.15,2013-11-06 11:34:00,
2013-11-06 06:40:00,52.2,50.5,30.24,ENE,71,0.0,0.0,94,0.00,,,0.00,Wunderground v.1.15,2013-11-06 11:40:00,
2013-11-06 06:45:00,52.2,50.5,30.24,ENE,71,0.0,1.0,94,0.00,,,0.00,Wunderground v.1.15,2013-11-06 11:45:00,
2013-11-06 06:51:00,52.3,50.9,30.24,South,172,0.0,0.0,95,0.00,,,0.00,Wunderground v.1.15,2013-11-06 11:51:00,
2013-11-06 06:56:00,52.3,50.9,30.24,South,171,0.0,0.0,95,0.00,,,0.00,Wunderground v.1.15,2013-11-06 11:56:00,
2013-11-06 07:02:00,52.3,50.9,30.24,SSE,165,0.0,0.0,95,0.00,,,0.00,Wunderground v.1.15,2013-11-06 12:02:00,
2013-11-06 07:07:00,52.3,50.9,30.24,SSE,165,0.0,0.0,95,0.00,,,0.01,Wunderground v.1.15,2013-11-06 12:07:00,
2013-11-06 07:12:00,52.2,50.8,30.24,SSE,165,0.0,0.0,95,0.00,,,0.01,Wunderground v.1.15,2013-11-06 12:12:00,
2013-11-06 07:18:00,52.2,51.1,30.24,East,101,0.0,1.0,96,0.00,,,0.01,Wunderground v.1.15,2013-11-06 12:18:00,
2013-11-06 07:23:00,52.2,51.1,30.24,East,101,0.0,0.0,96,0.00,,,0.01,Wunderground v.1.15,2013-11-06 12:23:00,
2013-11-06 07:29:00,52.2,51.1,30.24,ENE,60,0.0,0.0,96,0.00,,,0.01,Wunderground v.1.15,2013-11-06 12:29:00,
2013-11-06 07:34:00,52.3,51.5,30.24,ENE,63,0.0,2.0,97,0.00,,,0.02,Wunderground v.1.15,2013-11-06 12:34:00,
2013-11-06 07:40:00,52.3,51.5,30.24,ENE,65,0.0,3.0,97,0.00,,,0.02,Wunderground v.1.15,2013-11-06 12:40:00,
2013-11-06 07:45:00,52.3,51.5,30.24,ENE,61,0.0,3.0,97,0.00,,,0.02,Wunderground v.1.15,2013-11-06 12:45:00,
2013-11-06 07:51:00,52.5,51.7,30.24,WSW,245,0.0,0.0,97,0.00,,,0.02,Wunderground v.1.15,2013-11-06 12:51:00,
2013-11-06 07:56:00,52.5,52.0,30.24,WSW,242,0.0,0.0,98,0.00,,,0.02,Wunderground v.1.15,2013-11-06 12:56:00,
2013-11-06 08:02:00,52.6,52.1,30.24,SSW,198,0.0,2.0,98,0.00,,,0.02,Wunderground v.1.15,2013-11-06 13:02:00,
2013-11-06 08:07:00,52.6,52.1,30.24,SSW,199,0.0,2.0,98,0.00,,,0.02,Wunderground v.1.15,2013-11-06 13:07:00,
2013-11-06 08:13:00,52.6,52.1,30.24,ENE,71,0.0,1.0,98,0.00,,,0.02,Wunderground v.1.15,2013-11-06 13:13:00,
2013-11-06 08:18:00,52.8,52.3,30.24,NNE,18,1.0,5.0,98,0.00,,,0.02,Wunderground v.1.15,2013-11-06 13:18:00,
2013-11-06 08:24:00,52.9,52.6,30.25,NE,56,1.0,3.0,99,0.00,,,0.02,Wunderground v.1.15,2013-11-06 13:24:00,
2013-11-06 08:29:00,53.2,52.9,30.25,ENE,60,1.0,1.0,99,0.00,,,0.02,Wunderground v.1.15,2013-11-06 13:29:00,
2013-11-06 08:35:00,53.3,53.0,30.25,ENE,63,1.0,5.0,99,0.00,,,0.02,Wunderground v.1.15,2013-11-06 13:35:00,
2013-11-06 08:40:00,53.6,53.3,30.24,NNE,14,1.0,1.0,99,0.00,,,0.02,Wunderground v.1.15,2013-11-06 13:40:00,
2013-11-06 08:46:00,53.8,53.5,30.24,NE,53,1.0,5.0,99,0.00,,,0.02,Wunderground v.1.15,2013-11-06 13:46:00,
2013-11-06 08:51:00,53.9,53.6,30.24,ESE,121,2.0,2.0,99,0.00,,,0.02,Wunderground v.1.15,2013-11-06 13:51:00,
2013-11-06 08:56:00,53.8,53.5,30.24,NE,52,1.0,8.0,99,0.00,,,0.02,Wunderground v.1.15,2013-11-06 13:56:00,
2013-11-06 09:02:00,53.8,53.5,30.24,East,98,1.0,2.0,99,0.00,,,0.02,Wunderground v.1.15,2013-11-06 14:02:00,
2013-11-06 09:07:00,53.9,53.6,30.24,ENE,72,1.0,5.0,99,0.00,,,0.02,Wunderground v.1.15,2013-11-06 14:07:00,
2013-11-06 09:13:00,54.1,53.8,30.24,East,96,1.0,6.0,99,0.00,,,0.02,Wunderground v.1.15,2013-11-06 14:13:00,
2013-11-06 09:18:00,54.2,53.9,30.24,ENE,73,1.0,6.0,99,0.00,,,0.02,Wunderground v.1.15,2013-11-06 14:18:00,
2013-11-06 09:24:00,54.4,53.8,30.24,East,91,1.0,4.0,98,0.00,,,0.02,Wunderground v.1.15,2013-11-06 14:24:00,
2013-11-06 09:29:00,54.5,53.9,30.24,ESE,103,1.0,1.0,98,0.00,,,0.02,Wunderground v.1.15,2013-11-06 14:29:00,
2013-11-06 09:35:00,54.7,54.1,30.24,ENE,74,1.0,2.0,98,0.00,,,0.02,Wunderground v.1.15,2013-11-06 14:35:00,
2013-11-06 09:40:00,54.5,53.9,30.25,SSE,167,1.0,2.0,98,0.00,,,0.02,Wunderground v.1.15,2013-11-06 14:40:00,
2013-11-06 09:46:00,54.7,54.1,30.25,NNE,33,0.0,4.0,98,0.00,,,0.02,Wunderground v.1.15,2013-11-06 14:46:00,
2013-11-06 09:51:00,54.8,54.0,30.25,SE,132,0.0,0.0,97,0.00,,,0.02,Wunderground v.1.15,2013-11-06 14:51:00,
2013-11-06 09:57:00,55.0,54.2,30.25,East,86,1.0,6.0,97,0.00,,,0.02,Wunderground v.1.15,2013-11-06 14:57:00,
2013-11-06 10:02:00,55.0,53.9,30.25,NNE,13,1.0,5.0,96,0.00,,,0.02,Wunderground v.1.15,2013-11-06 15:02:00,
2013-11-06 10:08:00,55.0,53.9,30.25,NE,51,1.0,5.0,96,0.00,,,0.02,Wunderground v.1.15,2013-11-06 15:08:00,
2013-11-06 10:13:00,55.0,53.9,30.25,South,191,1.0,4.0,96,0.00,,,0.02,Wunderground v.1.15,2013-11-06 15:13:00,
2013-11-06 10:18:00,55.3,54.2,30.25,ENE,72,1.0,4.0,96,0.00,,,0.02,Wunderground v.1.15,2013-11-06 15:18:00,
2013-11-06 10:24:00,55.6,54.5,30.25,East,94,1.0,4.0,96,0.00,,,0.02,Wunderground v.1.15,2013-11-06 15:24:00,
2013-11-06 10:29:00,55.6,53.9,30.25,SSW,203,0.0,0.0,94,0.00,,,0.02,Wunderground v.1.15,2013-11-06 15:29:00,
2013-11-06 10:35:00,55.7,54.0,30.25,ENE,62,1.0,2.0,94,0.00,,,0.02,Wunderground v.1.15,2013-11-06 15:35:00,
2013-11-06 10:41:00,56.0,54.3,30.25,SE,139,1.0,1.0,94,0.00,,,0.02,Wunderground v.1.15,2013-11-06 15:41:00,
2013-11-06 10:46:00,56.2,54.2,30.25,ENE,68,1.0,6.0,93,0.00,,,0.02,Wunderground v.1.15,2013-11-06 15:46:00,
2013-11-06 10:52:00,57.2,55.2,30.25,ENE,69,1.0,6.0,93,0.00,,,0.02,Wunderground v.1.15,2013-11-06 15:52:00,
2013-11-06 10:57:00,57.2,54.6,30.25,NE,36,2.0,6.0,91,0.00,,,0.02,Wunderground v.1.15,2013-11-06 15:57:00,
2013-11-06 11:03:00,56.7,53.8,30.25,East,82,3.0,15.0,90,0.00,,,0.02,Wunderground v.1.15,2013-11-06 16:03:00,
2013-11-06 11:08:00,56.7,54.1,30.25,East,80,2.0,15.0,91,0.00,,,0.02,Wunderground v.1.15,2013-11-06 16:08:00,
2013-11-06 11:14:00,56.7,54.1,30.25,ESE,106,2.0,4.0,91,0.00,,,0.02,Wunderground v.1.15,2013-11-06 16:14:00,
2013-11-06 11:19:00,57.0,54.4,30.25,East,96,1.0,2.0,91,0.00,,,0.02,Wunderground v.1.15,2013-11-06 16:19:00,
2013-11-06 11:25:00,57.2,54.3,30.24,SSW,206,2.0,5.0,90,0.00,,,0.02,Wunderground v.1.15,2013-11-06 16:25:00,
2013-11-06 11:30:00,57.3,54.1,30.24,NNE,18,2.0,2.0,89,0.00,,,0.02,Wunderground v.1.15,2013-11-06 16:30:00,
2013-11-06 11:36:00,57.6,54.4,30.24,SW,224,1.0,2.0,89,0.00,,,0.02,Wunderground v.1.15,2013-11-06 16:36:00,
2013-11-06 11:41:00,58.1,54.6,30.24,SE,128,1.0,4.0,88,0.00,,,0.02,Wunderground v.1.15,2013-11-06 16:41:00,
2013-11-06 11:46:00,59.0,55.1,30.24,ENE,73,0.0,7.0,87,0.00,,,0.02,Wunderground v.1.15,2013-11-06 16:46:00,
2013-11-06 11:52:00,59.3,54.5,30.24,South,178,0.0,0.0,84,0.00,,,0.02,Wunderground v.1.15,2013-11-06 16:52:00,
2013-11-06 11:57:00,58.9,54.1,30.24,ENE,73,1.0,6.0,84,0.00,,,0.02,Wunderground v.1.15,2013-11-06 16:57:00,
2013-11-06 12:03:00,58.7,54.5,30.24,ESE,115,2.0,4.0,86,0.00,,,0.02,Wunderground v.1.15,2013-11-06 17:03:00,
2013-11-06 12:08:00,59.0,54.5,30.23,ESE,103,1.0,4.0,85,0.00,,,0.02,Wunderground v.1.15,2013-11-06 17:08:00,
2013-11-06 12:14:00,59.3,54.8,30.23,ENE,63,1.0,3.0,85,0.00,,,0.02,Wunderground v.1.15,2013-11-06 17:14:00,
2013-11-06 12:19:00,59.6,54.8,30.23,East,98,1.0,1.0,84,0.00,,,0.02,Wunderground v.1.15,2013-11-06 17:19:00,
2013-11-06 12:25:00,59.9,54.7,30.22,ENE,74,1.0,4.0,83,0.00,,,0.02,Wunderground v.1.15,2013-11-06 17:25:00,
2013-11-06 12:30:00,60.1,54.9,30.22,ESE,113,1.0,4.0,83,0.00,,,0.02,Wunderground v.1.15,2013-11-06 17:30:00,
2013-11-06 12:36:00,60.7,55.2,30.21,NE,53,2.0,4.0,82,0.00,,,0.02,Wunderground v.1.15,2013-11-06 17:36:00,
2013-11-06 12:41:00,62.0,56.4,30.21,ENE,60,2.0,2.0,82,0.00,,,0.02,Wunderground v.1.15,2013-11-06 17:41:00,
2013-11-06 12:47:00,62.3,55.0,30.21,East,81,1.0,5.0,77,0.00,,,0.02,Wunderground v.1.15,2013-11-06 17:47:00,
2013-11-06 12:52:00,62.4,55.1,30.19,ENE,75,1.0,3.0,77,0.00,,,0.02,Wunderground v.1.15,2013-11-06 17:52:00,
2013-11-06 12:58:00,62.3,55.0,30.19,East,79,1.0,9.0,77,0.00,,,0.02,Wunderground v.1.15,2013-11-06 17:58:00,
2013-11-06 13:03:00,63.4,56.1,30.19,East,80,1.0,4.0,77,0.00,,,0.02,Wunderground v.1.15,2013-11-06 18:03:00,
2013-11-06 13:09:00,63.9,55.4,30.18,SSW,195,2.0,2.0,74,0.00,,,0.02,Wunderground v.1.15,2013-11-06 18:09:00,
2013-11-06 13:14:00,63.7,55.6,30.18,ESE,111,2.0,9.0,75,0.00,,,0.02,Wunderground v.1.15,2013-11-06 18:14:00,
2013-11-06 13:20:00,63.7,55.3,30.18,ENE,68,2.0,4.0,74,0.00,,,0.03,Wunderground v.1.15,2013-11-06 18:20:00,
2013-11-06 13:25:00,64.2,56.5,30.17,ENE,59,2.0,4.0,76,0.00,,,0.03,Wunderground v.1.15,2013-11-06 18:25:00,
2013-11-06 13:31:00,63.9,55.4,30.17,ENE,69,1.0,2.0,74,0.00,,,0.03,Wunderground v.1.15,2013-11-06 18:31:00,
2013-11-06 13:36:00,64.2,55.4,30.17,SE,136,1.0,4.0,73,0.00,,,0.03,Wunderground v.1.15,2013-11-06 18:36:00,
2013-11-06 13:42:00,64.3,55.8,30.17,ESE,122,0.0,0.0,74,0.00,,,0.03,Wunderground v.1.15,2013-11-06 18:42:00,
2013-11-06 13:47:00,64.8,55.6,30.17,South,172,0.0,3.0,72,0.00,,,0.03,Wunderground v.1.15,2013-11-06 18:47:00,
2013-11-06 13:53:00,65.3,56.4,30.16,South,172,1.0,2.0,73,0.00,,,0.03,Wunderground v.1.15,2013-11-06 18:53:00,
2013-11-06 13:58:00,65.6,55.5,30.16,SSE,162,1.0,6.0,70,0.00,,,0.03,Wunderground v.1.15,2013-11-06 18:58:00,
2013-11-06 14:04:00,65.5,56.2,30.16,ENE,64,2.0,4.0,72,0.00,,,0.03,Wunderground v.1.15,2013-11-06 19:04:00,
2013-11-06 14:09:00,65.3,56.4,30.15,ENE,68,2.0,2.0,73,0.00,,,0.03,Wunderground v.1.15,2013-11-06 19:09:00,
2013-11-06 14:14:00,65.3,55.7,30.15,East,82,2.0,6.0,71,0.00,,,0.03,Wunderground v.1.15,2013-11-06 19:14:00,
2013-11-06 14:20:00,65.3,56.0,30.15,East,84,1.0,1.0,72,0.00,,,0.03,Wunderground v.1.15,2013-11-06 19:20:00,
2013-11-06 14:26:00,65.8,56.1,30.14,WSW,242,1.0,7.0,71,0.00,,,0.03,Wunderground v.1.15,2013-11-06 19:26:00,
2013-11-06 14:32:00,66.3,56.2,30.14,WSW,238,1.0,1.0,70,0.00,,,0.03,Wunderground v.1.15,2013-11-06 19:32:00,
2013-11-06 14:38:00,66.3,56.6,30.14,East,79,1.0,4.0,71,0.00,,,0.03,Wunderground v.1.15,2013-11-06 19:38:00,
2013-11-06 14:43:00,66.6,56.1,30.14,ENE,72,2.0,10.0,69,0.00,,,0.03,Wunderground v.1.15,2013-11-06 19:43:00,
2013-11-06 14:48:00,66.9,56.4,30.14,ESE,104,2.0,10.0,69,0.00,,,0.03,Wunderground v.1.15,2013-11-06 19:48:00,
2013-11-06 14:54:00,66.3,56.2,30.13,ENE,68,2.0,7.0,70,0.00,,,0.03,Wunderground v.1.15,2013-11-06 19:54:00,
2013-11-06 14:59:00,66.3,56.2,30.13,East,84,2.0,2.0,70,0.00,,,0.03,Wunderground v.1.15,2013-11-06 19:59:00,
2013-11-06 15:05:00,66.4,56.3,30.13,East,100,1.0,4.0,70,0.00,,,0.03,Wunderground v.1.15,2013-11-06 20:05:00,
2013-11-06 15:11:00,66.4,56.3,30.13,NE,49,1.0,1.0,70,0.00,,,0.03,Wunderground v.1.15,2013-11-06 20:11:00,
2013-11-06 15:17:00,66.1,55.6,30.13,SSE,150,1.0,2.0,69,0.00,,,0.03,Wunderground v.1.15,2013-11-06 20:17:00,
2013-11-06 15:23:00,66.1,56.0,30.12,NE,55,2.0,4.0,70,0.00,,,0.03,Wunderground v.1.15,2013-11-06 20:23:00,
2013-11-06 15:28:00,66.1,56.0,30.12,ENE,72,2.0,4.0,70,0.00,,,0.03,Wunderground v.1.15,2013-11-06 20:28:00,
2013-11-06 15:33:00,66.1,56.0,30.12,ENE,77,1.0,2.0,70,0.00,,,0.03,Wunderground v.1.15,2013-11-06 20:33:00,
2013-11-06 15:39:00,65.8,55.7,30.12,SE,131,1.0,1.0,70,0.00,,,0.03,Wunderground v.1.15,2013-11-06 20:39:00,
2013-11-06 15:44:00,65.6,55.9,30.12,ENE,63,2.0,10.0,71,0.00,,,0.03,Wunderground v.1.15,2013-11-06 20:44:00,
2013-11-06 15:50:00,65.5,55.8,30.12,ENE,71,2.0,3.0,71,0.00,,,0.03,Wunderground v.1.15,2013-11-06 20:50:00,
2013-11-06 15:55:00,65.5,56.2,30.12,SW,214,1.0,3.0,72,0.00,,,0.03,Wunderground v.1.15,2013-11-06 20:55:00,
2013-11-06 16:01:00,65.3,56.0,30.12,NNE,32,1.0,1.0,72,0.00,,,0.03,Wunderground v.1.15,2013-11-06 21:01:00,
2013-11-06 16:06:00,65.3,56.0,30.12,NE,36,1.0,3.0,72,0.00,,,0.03,Wunderground v.1.15,2013-11-06 21:06:00,
2013-11-06 16:12:00,65.2,55.6,30.12,ENE,65,2.0,3.0,71,0.00,,,0.03,Wunderground v.1.15,2013-11-06 21:12:00,
2013-11-06 16:17:00,65.2,55.9,30.12,ENE,65,2.0,3.0,72,0.00,,,0.03,Wunderground v.1.15,2013-11-06 21:17:00,
2013-11-06 16:23:00,65.2,55.9,30.12,ENE,65,1.0,3.0,72,0.00,,,0.03,Wunderground v.1.15,2013-11-06 21:23:00,
2013-11-06 16:28:00,65.2,55.6,30.12,ENE,65,1.0,3.0,71,0.00,,,0.03,Wunderground v.1.15,2013-11-06 21:28:00,
2013-11-06 16:34:00,65.0,55.8,30.12,ENE,64,1.0,2.0,72,0.00,,,0.03,Wunderground v.1.15,2013-11-06 21:34:00,
2013-11-06 16:39:00,64.8,55.6,30.11,SSW,200,1.0,1.0,72,0.00,,,0.03,Wunderground v.1.15,2013-11-06 21:39:00,
2013-11-06 16:44:00,64.7,55.8,30.11,SSW,200,0.0,1.0,73,0.00,,,0.03,Wunderground v.1.15,2013-11-06 21:44:00,
2013-11-06 16:50:00,64.5,55.7,30.11,South,186,0.0,0.0,73,0.00,,,0.03,Wunderground v.1.15,2013-11-06 21:50:00,
2013-11-06 16:56:00,64.5,55.7,30.11,East,96,0.0,0.0,73,0.00,,,0.03,Wunderground v.1.15,2013-11-06 21:56:00,
2013-11-06 17:01:00,64.5,55.7,30.11,ENE,73,1.0,2.0,73,0.00,,,0.03,Wunderground v.1.15,2013-11-06 22:01:00,
2013-11-06 17:06:00,64.7,55.8,30.11,ENE,73,1.0,2.0,73,0.00,,,0.03,Wunderground v.1.15,2013-11-06 22:06:00,
2013-11-06 17:11:00,64.3,55.5,30.11,ENE,66,0.0,1.0,73,0.00,,,0.03,Wunderground v.1.15,2013-11-06 22:11:00,
2013-11-06 17:17:00,63.9,55.4,30.11,ENE,65,0.0,1.0,74,0.00,,,0.03,Wunderground v.1.15,2013-11-06 22:17:00,
2013-11-06 17:23:00,63.5,55.4,30.11,East,85,0.0,2.0,75,0.00,,,0.03,Wunderground v.1.15,2013-11-06 22:23:00,
2013-11-06 17:28:00,63.4,55.3,30.11,East,85,0.0,2.0,75,0.00,,,0.03,Wunderground v.1.15,2013-11-06 22:28:00,
2013-11-06 17:34:00,63.4,55.7,30.11,East,85,0.0,0.0,76,0.00,,,0.03,Wunderground v.1.15,2013-11-06 22:34:00,
2013-11-06 17:39:00,63.5,55.4,30.11,East,84,0.0,0.0,75,0.00,,,0.03,Wunderground v.1.15,2013-11-06 22:39:00,
2013-11-06 17:45:00,63.4,55.3,30.11,East,84,0.0,0.0,75,0.00,,,0.03,Wunderground v.1.15,2013-11-06 22:45:00,
2013-11-06 17:50:00,63.5,55.8,30.11,East,81,0.0,0.0,76,0.00,,,0.03,Wunderground v.1.15,2013-11-06 22:50:00,
2013-11-06 17:56:00,63.2,55.5,30.11,ENE,65,0.0,3.0,76,0.00,,,0.03,Wunderground v.1.15,2013-11-06 22:56:00,
2013-11-06 18:01:00,63.1,55.8,30.11,ENE,65,0.0,0.0,77,0.00,,,0.03,Wunderground v.1.15,2013-11-06 23:01:00,
2013-11-06 18:07:00,62.9,55.6,30.11,ENE,65,0.0,0.0,77,0.00,,,0.03,Wunderground v.1.15,2013-11-06 23:07:00,
2013-11-06 18:12:00,62.9,55.6,30.11,ENE,65,0.0,0.0,77,0.00,,,0.03,Wunderground v.1.15,2013-11-06 23:12:00,
2013-11-06 18:18:00,62.9,55.6,30.11,ENE,72,0.0,0.0,77,0.00,,,0.03,Wunderground v.1.15,2013-11-06 23:18:00,
2013-11-06 18:23:00,62.7,55.4,30.11,ENE,72,0.0,0.0,77,0.00,,,0.03,Wunderground v.1.15,2013-11-06 23:23:00,
2013-11-06 18:29:00,62.4,55.4,30.11,ENE,72,0.0,0.0,78,0.00,,,0.03,Wunderground v.1.15,2013-11-06 23:29:00,
2013-11-06 18:34:00,62.1,55.2,30.11,ENE,72,0.0,0.0,78,0.00,,,0.03,Wunderground v.1.15,2013-11-06 23:34:00,
2013-11-06 18:40:00,62.0,55.4,30.11,ENE,72,0.0,0.0,79,0.00,,,0.03,Wunderground v.1.15,2013-11-06 23:40:00,
2013-11-06 18:45:00,61.8,55.6,30.11,ENE,72,0.0,0.0,80,0.00,,,0.03,Wunderground v.1.15,2013-11-06 23:45:00,
2013-11-06 18:50:00,62.0,55.8,30.11,ENE,72,0.0,0.0,80,0.00,,,0.03,Wunderground v.1.15,2013-11-06 23:50:00,
2013-11-06 18:56:00,62.0,55.8,30.11,ENE,72,0.0,0.0,80,0.00,,,0.03,Wunderground v.1.15,2013-11-06 23:56:00,
2013-11-06 19:01:00,62.0,55.8,30.11,ENE,72,0.0,0.0,80,0.00,,,0.03,Wunderground v.1.15,2013-11-07 00:01:00,
2013-11-06 19:07:00,61.8,55.6,30.10,ENE,72,0.0,1.0,80,0.00,,,0.03,Wunderground v.1.15,2013-11-07 00:07:00,
2013-11-06 19:12:00,61.8,55.6,30.10,ENE,72,0.0,0.0,80,0.00,,,0.03,Wunderground v.1.15,2013-11-07 00:12:00,
2013-11-06 19:18:00,61.8,55.6,30.10,ENE,72,0.0,3.0,80,0.00,,,0.03,Wunderground v.1.15,2013-11-07 00:18:00,
2013-11-06 19:23:00,62.0,55.8,30.10,ENE,77,1.0,5.0,80,0.00,,,0.03,Wunderground v.1.15,2013-11-07 00:23:00,
2013-11-06 19:29:00,62.1,55.5,30.10,East,83,2.0,3.0,79,0.00,,,0.03,Wunderground v.1.15,2013-11-07 00:29:00,
2013-11-06 19:34:00,62.0,55.4,30.10,ENE,67,2.0,3.0,79,0.00,,,0.03,Wunderground v.1.15,2013-11-07 00:34:00,
2013-11-06 19:39:00,62.1,55.5,30.09,East,82,3.0,3.0,79,0.00,,,0.03,Wunderground v.1.15,2013-11-07 00:39:00,
2013-11-06 19:45:00,62.0,55.4,30.09,ENE,77,3.0,5.0,79,0.00,,,0.03,Wunderground v.1.15,2013-11-07 00:45:00,
2013-11-06 19:51:00,61.6,55.4,30.09,ENE,76,1.0,2.0,80,0.00,,,0.03,Wunderground v.1.15,2013-11-07 00:51:00,
2013-11-06 19:56:00,61.5,55.3,30.09,ENE,76,0.0,2.0,80,0.00,,,0.03,Wunderground v.1.15,2013-11-07 00:56:00,
2013-11-06 20:01:00,61.3,55.4,30.09,ENE,76,0.0,0.0,81,0.00,,,0.03,Wunderground v.1.15,2013-11-07 01:01:00,
2013-11-06 20:07:00,61.5,55.6,30.09,ENE,76,0.0,0.0,81,0.00,,,0.03,Wunderground v.1.15,2013-11-07 01:07:00,
2013-11-06 20:13:00,61.5,55.6,30.09,ENE,68,0.0,2.0,81,0.00,,,0.03,Wunderground v.1.15,2013-11-07 01:13:00,
2013-11-06 20:18:00,61.3,55.4,30.09,ENE,77,0.0,2.0,81,0.00,,,0.03,Wunderground v.1.15,2013-11-07 01:18:00,
2013-11-06 20:23:00,61.2,55.3,30.09,ENE,77,0.0,0.0,81,0.00,,,0.03,Wunderground v.1.15,2013-11-07 01:23:00,
2013-11-06 20:29:00,61.2,55.7,30.09,NNE,19,0.0,0.0,82,0.00,,,0.03,Wunderground v.1.15,2013-11-07 01:29:00,
2013-11-06 20:34:00,61.2,55.7,30.09,NE,42,1.0,3.0,82,0.00,,,0.03,Wunderground v.1.15,2013-11-07 01:34:00,
2013-11-06 20:40:00,61.3,55.8,30.09,NE,48,1.0,4.0,82,0.00,,,0.03,Wunderground v.1.15,2013-11-07 01:40:00,
2013-11-06 20:45:00,61.5,56.0,30.09,East,82,1.0,4.0,82,0.00,,,0.03,Wunderground v.1.15,2013-11-07 01:45:00,
2013-11-06 20:51:00,61.6,55.7,30.08,ENE,72,1.0,2.0,81,0.00,,,0.03,Wunderground v.1.15,2013-11-07 01:51:00,
2013-11-06 20:56:00,61.8,55.9,30.08,East,87,1.0,4.0,81,0.00,,,0.03,Wunderground v.1.15,2013-11-07 01:56:00,
2013-11-06 21:02:00,62.0,56.1,30.08,East,81,2.0,5.0,81,0.00,,,0.03,Wunderground v.1.15,2013-11-07 02:02:00,
2013-11-06 21:07:00,62.0,56.1,30.07,East,89,2.0,10.0,81,0.00,,,0.03,Wunderground v.1.15,2013-11-07 02:07:00,
2013-11-06 21:13:00,62.0,56.1,30.07,East,87,1.0,5.0,81,0.00,,,0.03,Wunderground v.1.15,2013-11-07 02:13:00,
2013-11-06 21:18:00,62.0,56.1,30.07,East,89,1.0,5.0,81,0.00,,,0.03,Wunderground v.1.15,2013-11-07 02:18:00,
2013-11-06 21:24:00,62.0,56.1,30.08,SW,235,2.0,5.0,81,0.00,,,0.03,Wunderground v.1.15,2013-11-07 02:24:00,
2013-11-06 21:29:00,62.0,56.1,30.08,East,92,2.0,2.0,81,0.00,,,0.03,Wunderground v.1.15,2013-11-07 02:29:00,
2013-11-06 21:35:00,61.8,55.9,30.08,ESE,120,1.0,3.0,81,0.00,,,0.03,Wunderground v.1.15,2013-11-07 02:35:00,
2013-11-06 21:40:00,61.8,55.9,30.07,South,175,2.0,4.0,81,0.00,,,0.03,Wunderground v.1.15,2013-11-07 02:40:00,
2013-11-06 21:46:00,61.8,55.9,30.07,NE,46,1.0,4.0,81,0.00,,,0.03,Wunderground v.1.15,2013-11-07 02:46:00,
2013-11-06 21:51:00,61.8,55.9,30.07,ENE,73,1.0,2.0,81,0.00,,,0.03,Wunderground v.1.15,2013-11-07 02:51:00,
2013-11-06 21:57:00,61.8,55.9,30.07,SE,141,1.0,2.0,81,0.00,,,0.03,Wunderground v.1.15,2013-11-07 02:57:00,
2013-11-06 22:03:00,61.8,55.9,30.07,ENE,76,1.0,2.0,81,0.00,,,0.03,Wunderground v.1.15,2013-11-07 03:03:00,
2013-11-06 22:08:00,61.8,55.9,30.07,NNE,27,1.0,2.0,81,0.00,,,0.03,Wunderground v.1.15,2013-11-07 03:08:00,
2013-11-06 22:14:00,61.8,55.9,30.07,SSW,200,1.0,4.0,81,0.00,,,0.03,Wunderground v.1.15,2013-11-07 03:14:00,
2013-11-06 22:19:00,61.8,55.9,30.07,SSW,205,1.0,1.0,81,0.00,,,0.03,Wunderground v.1.15,2013-11-07 03:19:00,
2013-11-06 22:25:00,61.8,55.9,30.08,West,266,0.0,3.0,81,0.00,,,0.03,Wunderground v.1.15,2013-11-07 03:25:00,
2013-11-06 22:30:00,61.6,55.7,30.08,NW,321,0.0,0.0,81,0.00,,,0.03,Wunderground v.1.15,2013-11-07 03:30:00,
2013-11-06 22:36:00,61.6,55.7,30.08,SSW,204,1.0,3.0,81,0.00,,,0.03,Wunderground v.1.15,2013-11-07 03:36:00,
2013-11-06 22:41:00,61.6,56.0,30.08,SSW,204,0.0,2.0,82,0.00,,,0.03,Wunderground v.1.15,2013-11-07 03:41:00,
2013-11-06 22:47:00,61.6,55.7,30.08,SSW,205,0.0,5.0,81,0.00,,,0.03,Wunderground v.1.15,2013-11-07 03:47:00,
2013-11-06 22:52:00,61.8,55.9,30.07,SSW,203,0.0,1.0,81,0.00,,,0.03,Wunderground v.1.15,2013-11-07 03:52:00,
2013-11-06 22:58:00,61.8,55.9,30.07,SE,131,1.0,2.0,81,0.00,,,0.03,Wunderground v.1.15,2013-11-07 03:58:00,
2013-11-06 23:03:00,61.6,56.0,30.07,SE,142,0.0,0.0,82,0.00,,,0.03,Wunderground v.1.15,2013-11-07 04:03:00,
2013-11-06 23:09:00,61.3,56.4,30.07,SSW,194,0.0,1.0,84,0.00,,,0.03,Wunderground v.1.15,2013-11-07 04:09:00,
2013-11-06 23:14:00,61.0,57.1,30.07,SSW,204,0.0,1.0,87,0.00,,,0.03,Wunderground v.1.15,2013-11-07 04:14:00,
2013-11-06 23:20:00,60.5,56.9,30.07,SSW,204,0.0,0.0,88,0.00,,,0.03,Wunderground v.1.15,2013-11-07 04:20:00,
2013-11-06 23:25:00,60.4,57.1,30.08,SSW,206,0.0,3.0,89,0.00,,,0.03,Wunderground v.1.15,2013-11-07 04:25:00,
2013-11-06 23:31:00,60.2,57.3,30.08,SSW,212,0.0,0.0,90,0.00,,,0.03,Wunderground v.1.15,2013-11-07 04:31:00,
2013-11-06 23:36:00,60.1,57.2,30.07,SSW,212,0.0,0.0,90,0.00,,,0.03,Wunderground v.1.15,2013-11-07 04:36:00,
2013-11-06 23:42:00,59.9,57.3,30.07,South,183,1.0,3.0,91,0.00,,,0.03,Wunderground v.1.15,2013-11-07 04:42:00,
2013-11-06 23:47:00,59.9,57.3,30.07,ENE,74,1.0,3.0,91,0.00,,,0.03,Wunderground v.1.15,2013-11-07 04:47:00,
2013-11-06 23:53:00,59.8,57.5,30.06,ENE,72,1.0,1.0,92,0.00,,,0.03,Wunderground v.1.15,2013-11-07 04:53:00,
2013-11-06 23:58:00,59.8,57.5,30.06,East,86,1.0,3.0,92,0.00,,,0.03,Wunderground v.1.15,2013-11-07 04:58:00,